Stations météo

réclame
Mon MeteoGroup
Petisträsk, Suède (2282): Température de l'air & dewpoint: 17.04.2018 03:00:00 - 23.04.2018 03:00:00 (CEST)Petisträsk, Suède (2282): Vitesse du vent & gusts: 17.04.2018 03:00:00 - 23.04.2018 03:00:00 (CEST)Petisträsk, Suède (2282): Direction du vent: 17.04.2018 03:00:00 - 23.04.2018 03:00:00 (CEST)Petisträsk, Suède (2282): visibility: 17.04.2018 03:00:00 - 23.04.2018 03:00:00 (CEST)Petisträsk, Suède (2282): Quantités de précipitations: 17.04.2018 03:00:00 - 23.04.2018 03:00:00 (CEST)
Date & Time tt [°C] td [°C] ff [km/h] ff [knt] fx [km/h] fx [knt] dd vv [km] rr [mm]
23.04.2018 03:00:00 -2,1 -2,1 5 3 6 3 E 12 0,0
23.04.2018 02:00:00 -2,0 -2,0 3 2 6 3 E 14 0,0
23.04.2018 01:00:00 -1,9 -2,0 2 1 5 3 ENE 21 0,0
23.04.2018 00:00:00 -0,6 -1,2 3 2 6 3 ESE 35 0,0
22.04.2018 23:00:00 0,5 -1,1 3 2 7 4 SSE 50 0,0
22.04.2018 22:00:00 1,4 -0,7 3 2 7 4 ESE 50 0,0
22.04.2018 21:00:00 3,9 -0,1 3 1 15 8 SSE 50 0,0
22.04.2018 20:00:00 5,7 -0,4 0 0 8 4 N 50 0,0
22.04.2018 19:00:00 7,4 -0,1 2 1 8 5 S 50 0,0
22.04.2018 18:00:00 7,4 -0,1 0 0 5 3 N 50 0,0
22.04.2018 17:00:00 7,4 -0,1 2 1 7 4 SW 50 0,0
22.04.2018 16:00:00 8,9 -0,2 3 1 7 4 SW 49 0,0
22.04.2018 15:00:00 8,1 -0,7 2 1 8 5 SW 42 0,0
22.04.2018 14:00:00 7,0 -0,9 3 1 6 3 SW 44 0,0
22.04.2018 13:00:00 5,2 -1,1 3 2 6 3 SSE 44 0,0
22.04.2018 12:00:00 4,4 -0,8 3 2 7 4 WNW 45 0,0
22.04.2018 11:00:00 3,5 -0,3 0 0 6 3 N 44 0,0
22.04.2018 10:00:00 2,5 -0,8 0 0 4 2 N 45 0,0
22.04.2018 09:00:00 1,2 -0,9 0 0 6 3 N 45 0,0
22.04.2018 08:00:00 1,1 -0,7 2 1 9 5 NE 40 0,0
22.04.2018 07:00:00 0,6 -0,3 0 0 9 5 N 47 0,0
22.04.2018 06:00:00 0,2 0,1 0 0 9 5 N 47 0,0
22.04.2018 05:00:00 0,2 0,2 2 1 8 5 NNE 45 0,0
22.04.2018 04:00:00 0,2 0,2 4 2 11 6 NNW 50 0,0
22.04.2018 03:00:00 0,1 0,1 4 2 10 5 N 49 0,0
22.04.2018 02:00:00 0,1 0,1 3 2 9 5 N 20 0,0
22.04.2018 01:00:00 0,2 0,2 4 2 12 7 NE 5 0,0
22.04.2018 00:00:00 0,6 0,6 5 3 13 7 ENE 4,2 0,0
21.04.2018 23:00:00 1,8 1,5 4 2 13 7 E 7 0,0
21.04.2018 22:00:00 3,0 2,0 6 3 13 7 NW 35 0,1
21.04.2018 21:00:00 3,8 1,7 5 3 15 8 NW 50 0,0
21.04.2018 20:00:00 4,6 1,1 11 6 22 12 WNW 50 0,0
21.04.2018 19:00:00 4,9 0,5 10 6 20 11 W 50 0,0
21.04.2018 18:00:00 6,0 0,1 6 3 17 9 W 50 0,0
21.04.2018 17:00:00 5,8 0,6 4 2 11 6 W 50 0,0
21.04.2018 16:00:00 5,1 1,2 7 4 18 10 W 43 0,0
21.04.2018 15:00:00 4,3 1,7 9 5 15 8 W 49 0,0
21.04.2018 14:00:00 3,8 1,7 10 6 22 12 WNW 26 0,1
21.04.2018 13:00:00 5,9 0,2 9 5 18 10 W 50 0,0
21.04.2018 12:00:00 5,7 0,7 8 4 19 10 WNW 50 0,0
21.04.2018 11:00:00 4,4 1,4 9 5 18 10 W 32 0,0
21.04.2018 10:00:00 4,8 0,9 7 4 19 11 WNW 50 0,0
21.04.2018 09:00:00 4,8 1,1 7 4 16 8 W 50 0,0
21.04.2018 08:00:00 4,4 1,1 9 5 16 8 W 50 0,0
21.04.2018 07:00:00 4,4 1,1 7 4 10 6 WNW 50 0,0
21.04.2018 06:00:00 1,0 1,0 4 2 8 4 W 50 0,0
21.04.2018 05:00:00 -0,6 -1,0 0 0 8 4 N 50 0,0
21.04.2018 04:00:00 1,0 -0,2 3 1 9 5 N 50 0,0
21.04.2018 03:00:00 3,1 0,8 5 3 11 6 WNW 50 0,0
21.04.2018 02:00:00 2,6 0,7 0 0 9 5 N 50 0,0
21.04.2018 01:00:00 3,3 1,5 6 3 15 8 WNW 50 0,0
21.04.2018 00:00:00 2,4 0,6 3 1 6 3 WNW 50 0,0
20.04.2018 23:00:00 1,1 -0,2 3 2 5 3 W 50 0,0
20.04.2018 22:00:00 2,2 -0,2 0 0 6 3 N 50 0,0
20.04.2018 21:00:00 4,9 0,5 5 3 9 5 W 50 0,0
20.04.2018 20:00:00 5,8 0,8 3 2 10 6 W 50 0,0
20.04.2018 19:00:00 7,0 1,1 6 4 11 6 W 50 0,0
20.04.2018 18:00:00 7,0 0,9 10 5 17 9 W 50 0,0
20.04.2018 17:00:00 9,9 1,5 6 3 16 9 WNW 50 0,0
20.04.2018 16:00:00 8,9 1,3 10 5 23 13 WNW 50 0,0
20.04.2018 15:00:00 8,8 1,2 8 4 22 12 WNW 48 0,0
20.04.2018 14:00:00 8,7 1,6 11 6 25 14 WNW 50 0,0
20.04.2018 13:00:00 8,1 2,3 12 6 25 13 WNW 43 0,0
20.04.2018 12:00:00 8,2 3,1 11 6 25 14 WNW 42 0,0
20.04.2018 11:00:00 6,6 3,9 8 5 20 11 W 50 0,0
20.04.2018 10:00:00 5,9 5,0 4 2 8 4 W 38 0,0
20.04.2018 09:00:00 5,6 5,2 4 2 8 5 WNW 42 0,0
20.04.2018 08:00:00 3,6 3,6 3 2 7 4 NNW 15 0,0
20.04.2018 07:00:00 2,6 2,6 0 0 3 2 N 0,9 0,0
20.04.2018 06:00:00 2,1 2,1 2 1 5 3 ESE 10 0,1
20.04.2018 05:00:00 2,6 2,6 0 0 5 3 N 13 0,2
20.04.2018 04:00:00 1,5 1,5 2 1 9 5 ESE 4,5 0,7
20.04.2018 03:00:00 1,1 1,1 4 2 7 4 E 8 0,8
20.04.2018 02:00:00 2,2 0,6 0 0 8 5 N 17 0,2
20.04.2018 01:00:00 2,7 0,8 6 3 8 4 E 50 0,0
20.04.2018 00:00:00 3,6 0,8 3 2 6 3 ESE 50 0,0
19.04.2018 23:00:00 3,3 0,5 4 2 6 4 E 50 0,0
19.04.2018 22:00:00 1,9 0,0 0 0 3 2 N 50 0,0
19.04.2018 21:00:00 2,6 0,0 0 0 4 2 N 50 0,0
19.04.2018 20:00:00 4,5 0,5 0 0 1 1 N 50 0,0
19.04.2018 19:00:00 8,2 1,1 0 0 4 2 N 50 0,0
19.04.2018 18:00:00 8,7 1,4 3 1 10 6 W 50 0,0
19.04.2018 17:00:00 8,8 1,2 6 4 12 7 W 50 0,0
19.04.2018 16:00:00 9,4 0,8 7 4 18 10 W 46 0,0
19.04.2018 15:00:00 10,1 1,2 10 5 20 11 WNW 44 0,0
19.04.2018 14:00:00 9,2 1,1 11 6 23 12 WNW 46 0,0
19.04.2018 13:00:00 9,0 1,4 9 5 26 14 WNW 45 0,0
19.04.2018 12:00:00 8,6 1,7 11 6 23 13 WNW 38 0,0
19.04.2018 11:00:00 7,8 1,4 12 7 23 13 WNW 47 0,0
19.04.2018 10:00:00 7,0 1,3 13 7 25 13 WNW 42 0,0
19.04.2018 09:00:00 6,6 1,5 12 6 26 14 NW 50 0,0
19.04.2018 08:00:00 5,6 1,3 13 7 23 12 NW 47 0,0
19.04.2018 07:00:00 3,9 1,1 6 4 22 12 NW 50 0,0
19.04.2018 06:00:00 2,8 0,9 10 6 22 12 WNW 50 0,0
19.04.2018 05:00:00 2,8 0,7 11 6 24 13 NW 50 0,0
19.04.2018 04:00:00 2,6 0,7 10 6 19 10 WNW 50 0,0
19.04.2018 03:00:00 2,9 0,8 10 5 23 13 WNW 50 0,0
19.04.2018 02:00:00 3,3 0,7 10 6 21 12 WNW 50 0,0
19.04.2018 01:00:00 4,1 0,8 10 6 23 12 WNW 50 0,0
19.04.2018 00:00:00 4,3 1,7 9 5 16 9 WNW 50 0,0
18.04.2018 23:00:00 3,6 1,6 6 4 10 5 W 50 0,0
18.04.2018 22:00:00 4,9 1,7 8 4 10 6 W 50 0,0
18.04.2018 21:00:00 5,3 1,4 5 3 8 5 W 50 0,0
18.04.2018 20:00:00 5,3 0,1 2 1 7 4 W 50 0,0
18.04.2018 19:00:00 7,1 0,7 2 1 6 3 WSW 50 0,0
18.04.2018 18:00:00 7,7 0,4 3 1 10 5 WSW 50 0,0
18.04.2018 17:00:00 7,6 -0,1 4 2 12 7 W 48 0,0
18.04.2018 16:00:00 7,8 -1,2 7 4 14 7 W 50 0,0
18.04.2018 15:00:00 8,7 -2,3 5 3 16 9 WSW 43 0,0
18.04.2018 14:00:00 9,9 -4,1 4 2 14 7 SW 50 0,0
18.04.2018 13:00:00 12,9 -6,7 2 1 11 6 SSE 43 0,0
18.04.2018 12:00:00 11,6 -6,3 3 2 11 6 SSE 50 0,0
18.04.2018 11:00:00 11,4 -6,0 3 2 10 5 SSW 50 0,0
18.04.2018 10:00:00 10,2 -5,0 4 2 9 5 S 49 0,0
18.04.2018 09:00:00 10,6 -4,6 0 0 4 2 N 41 0,0
18.04.2018 08:00:00 0,8 -5,0 2 1 4 2 ENE 50 0,0
18.04.2018 07:00:00 -2,1 -5,4 0 0 2 1 N 49 0,0
18.04.2018 06:00:00 -6,8 -7,7 0 0 4 2 N 50 0,0
18.04.2018 05:00:00 -6,3 -6,8 0 0 3 2 N 50 0,0
18.04.2018 04:00:00 -6,4 -7,2 0 0 2 1 N 50 0,0
18.04.2018 03:00:00 -5,3 -6,1 0 0 4 2 N 50 0,0
18.04.2018 02:00:00 -5,3 -6,3 3 1 4 2 W 50 0,0
18.04.2018 01:00:00 -4,0 -5,4 0 0 2 1 N 50 0,0
18.04.2018 00:00:00 -3,2 -5,2 0 0 3 1 N 50 0,0
17.04.2018 23:00:00 -1,5 -4,2 0 0 3 2 N 50 0,0
17.04.2018 22:00:00 -1,3 -4,1 0 0 3 2 N 50 0,0
17.04.2018 21:00:00 2,1 -3,8 0 0 1 1 N 50 0,0
17.04.2018 20:00:00 5,5 -3,1 0 0 6 4 N 50 0,0
17.04.2018 19:00:00 10,7 -7,1 5 3 13 7 ENE 50 0,0
17.04.2018 18:00:00 10,7 -6,2 6 4 13 7 ENE 50 0,0
17.04.2018 17:00:00 11,1 -5,8 6 3 14 8 E 50 0,0
17.04.2018 16:00:00 11,9 -5,6 7 4 15 8 E 50 0,0
17.04.2018 15:00:00 11,3 -5,2 4 2 17 9 N 50 0,0
17.04.2018 14:00:00 11,8 -5,2 4 2 14 8 ENE 41 0,0
17.04.2018 13:00:00 10,4 -6,0 6 3 12 6 N 34 0,0
17.04.2018 12:00:00 10,2 -5,4 4 2 8 4 E 49 0,0
17.04.2018 11:00:00 8,6 -3,3 0 0 9 5 N 34 0,0
17.04.2018 10:00:00 6,9 -4,2 3 2 14 8 N 45 0,0
17.04.2018 09:00:00 6,1 -4,7 5 3 18 10 NNE 46 0,0
17.04.2018 08:00:00 3,7 -2,1 0 0 3 1 N 42 0,0
17.04.2018 07:00:00 -1,3 -2,7 2 1 4 2 W 50 0,0
17.04.2018 06:00:00 -1,6 -2,9 0 0 3 2 N 50 0,0
17.04.2018 05:00:00 -1,8 -2,9 0 0 3 1 N 50 0,0
17.04.2018 04:00:00 -0,5 -2,4 0 0 4 2 N 50 0,0
17.04.2018 03:00:00 0,6 -1,8 3 1 4 2 NW 50 0,0

tt = Température de l'air
td = dewpoint
ff = Vitesse du vent
fx = gusts
dd = Direction du vent
vv = visibility
rr = Quantités de précipitations

stations d'obs. à proximité